sensor_id;sensor_type;location;lat;lon;timestamp;pressure;altitude;pressure_sealevel;temperature;humidity
6506;BME280;3286;49.858;8.768;2024-01-30T00:00:26;100525.28;;;4.69;57.86
6506;BME280;3286;49.858;8.768;2024-01-30T00:02:52;100526.19;;;4.68;57.34
6506;BME280;3286;49.858;8.768;2024-01-30T00:05:19;100527.28;;;4.63;57.79
6506;BME280;3286;49.858;8.768;2024-01-30T00:07:47;100525.44;;;4.66;58.06
6506;BME280;3286;49.858;8.768;2024-01-30T00:10:14;100526.19;;;4.68;57.61
6506;BME280;3286;49.858;8.768;2024-01-30T00:12:40;100528.41;;;4.93;56.55
6506;BME280;3286;49.858;8.768;2024-01-30T00:15:07;100526.72;;;4.92;55.36
6506;BME280;3286;49.858;8.768;2024-01-30T00:17:35;100528.78;;;4.52;55.44
6506;BME280;3286;49.858;8.768;2024-01-30T00:20:02;100524.69;;;4.46;56.17
6506;BME280;3286;49.858;8.768;2024-01-30T00:22:30;100533.78;;;4.39;56.68
6506;BME280;3286;49.858;8.768;2024-01-30T00:24:58;100524.38;;;4.52;56.59
6506;BME280;3286;49.858;8.768;2024-01-30T00:27:25;100523.66;;;4.66;55.25
6506;BME280;3286;49.858;8.768;2024-01-30T00:29:52;100516.69;;;4.49;54.82
6506;BME280;3286;49.858;8.768;2024-01-30T00:32:19;100522.06;;;4.28;56.56
6506;BME280;3286;49.858;8.768;2024-01-30T00:34:46;100522.31;;;4.59;57.15
6506;BME280;3286;49.858;8.768;2024-01-30T00:37:12;100526.50;;;4.61;56.25
6506;BME280;3286;49.858;8.768;2024-01-30T00:39:39;100526.50;;;4.79;55.07
6506;BME280;3286;49.858;8.768;2024-01-30T00:42:07;100524.59;;;4.65;55.05
6506;BME280;3286;49.858;8.768;2024-01-30T00:44:35;100529.00;;;4.47;55.04
6506;BME280;3286;49.858;8.768;2024-01-30T00:47:02;100520.44;;;4.61;53.61
6506;BME280;3286;49.858;8.768;2024-01-30T00:49:29;100525.78;;;4.42;53.84
6506;BME280;3286;49.858;8.768;2024-01-30T00:51:56;100531.56;;;4.13;56.39
6506;BME280;3286;49.858;8.768;2024-01-30T00:54:22;100526.69;;;4.23;56.66
6506;BME280;3286;49.858;8.768;2024-01-30T00:56:49;100530.00;;;4.27;56.50
6506;BME280;3286;49.858;8.768;2024-01-30T00:59:17;100533.34;;;4.30;56.02
6506;BME280;3286;49.858;8.768;2024-01-30T01:01:43;100516.16;;;4.42;54.95
6506;BME280;3286;49.858;8.768;2024-01-30T01:04:10;100521.78;;;4.34;55.63
6506;BME280;3286;49.858;8.768;2024-01-30T01:06:37;100523.47;;;4.35;55.12
6506;BME280;3286;49.858;8.768;2024-01-30T01:09:03;100524.00;;;4.07;55.21
6506;BME280;3286;49.858;8.768;2024-01-30T01:11:30;100524.59;;;4.47;53.72
6506;BME280;3286;49.858;8.768;2024-01-30T01:13:56;100533.41;;;4.11;56.51
6506;BME280;3286;49.858;8.768;2024-01-30T01:16:24;100534.94;;;4.33;56.34
6506;BME280;3286;49.858;8.768;2024-01-30T01:18:51;100534.44;;;3.89;56.38
6506;BME280;3286;49.858;8.768;2024-01-30T01:21:18;100535.16;;;4.28;55.20
6506;BME280;3286;49.858;8.768;2024-01-30T01:23:44;100537.25;;;3.85;55.44
6506;BME280;3286;49.858;8.768;2024-01-30T01:26:11;100536.25;;;3.70;56.48
6506;BME280;3286;49.858;8.768;2024-01-30T01:28:39;100533.34;;;3.76;56.52
6506;BME280;3286;49.858;8.768;2024-01-30T01:31:06;100531.81;;;3.72;56.17
6506;BME280;3286;49.858;8.768;2024-01-30T01:33:34;100531.00;;;3.89;55.94
6506;BME280;3286;49.858;8.768;2024-01-30T01:36:02;100530.78;;;4.11;55.00
6506;BME280;3286;49.858;8.768;2024-01-30T01:38:29;100532.53;;;4.11;55.61
6506;BME280;3286;49.858;8.768;2024-01-30T01:40:55;100525.06;;;4.03;55.90
6506;BME280;3286;49.858;8.768;2024-01-30T01:43:22;100524.53;;;4.14;55.71
6506;BME280;3286;49.858;8.768;2024-01-30T01:45:49;100521.38;;;4.07;56.77
6506;BME280;3286;49.858;8.768;2024-01-30T01:48:15;100520.22;;;3.95;56.79
6506;BME280;3286;49.858;8.768;2024-01-30T01:50:44;100521.38;;;4.07;57.49
6506;BME280;3286;49.858;8.768;2024-01-30T01:53:10;100522.53;;;4.01;57.44
6506;BME280;3286;49.858;8.768;2024-01-30T01:55:38;100517.09;;;4.24;55.79
6506;BME280;3286;49.858;8.768;2024-01-30T01:58:05;100516.84;;;4.28;55.45
6506;BME280;3286;49.858;8.768;2024-01-30T02:00:32;100513.56;;;4.25;55.01
6506;BME280;3286;49.858;8.768;2024-01-30T02:03:00;100514.69;;;4.01;56.18
6506;BME280;3286;49.858;8.768;2024-01-30T02:05:27;100510.44;;;3.99;55.10
6506;BME280;3286;49.858;8.768;2024-01-30T02:07:56;100511.13;;;3.85;55.65
6506;BME280;3286;49.858;8.768;2024-01-30T02:10:22;100509.94;;;4.10;54.65
6506;BME280;3286;49.858;8.768;2024-01-30T02:12:49;100513.00;;;3.63;55.53
6506;BME280;3286;49.858;8.768;2024-01-30T02:15:16;100510.97;;;3.70;56.78
6506;BME280;3286;49.858;8.768;2024-01-30T02:17:43;100504.69;;;3.55;56.81
6506;BME280;3286;49.858;8.768;2024-01-30T02:20:11;100514.28;;;3.74;56.96
6506;BME280;3286;49.858;8.768;2024-01-30T02:22:40;100509.72;;;3.77;57.35
6506;BME280;3286;49.858;8.768;2024-01-30T02:25:08;100511.22;;;3.83;57.16
6506;BME280;3286;49.858;8.768;2024-01-30T02:27:34;100510.16;;;3.87;57.56
6506;BME280;3286;49.858;8.768;2024-01-30T02:30:01;100504.97;;;3.86;57.78
6506;BME280;3286;49.858;8.768;2024-01-30T02:32:28;100513.69;;;4.04;57.03
6506;BME280;3286;49.858;8.768;2024-01-30T02:34:54;100508.91;;;3.95;57.05
6506;BME280;3286;49.858;8.768;2024-01-30T02:37:21;100509.59;;;3.81;57.51
6506;BME280;3286;49.858;8.768;2024-01-30T02:39:49;100511.78;;;3.90;57.36
6506;BME280;3286;49.858;8.768;2024-01-30T02:42:16;100508.53;;;4.02;57.38
6506;BME280;3286;49.858;8.768;2024-01-30T02:44:42;100508.75;;;3.98;55.48
6506;BME280;3286;49.858;8.768;2024-01-30T02:47:09;100514.19;;;3.75;55.31
6506;BME280;3286;49.858;8.768;2024-01-30T02:49:35;100500.97;;;3.79;55.11
6506;BME280;3286;49.858;8.768;2024-01-30T02:52:03;100516.56;;;3.24;56.71
6506;BME280;3286;49.858;8.768;2024-01-30T02:54:29;100508.94;;;3.58;57.19
6506;BME280;3286;49.858;8.768;2024-01-30T02:56:58;100511.81;;;3.71;57.29
6506;BME280;3286;49.858;8.768;2024-01-30T02:59:24;100514.97;;;3.77;57.02
6506;BME280;3286;49.858;8.768;2024-01-30T03:01:51;100504.84;;;3.89;57.26
6506;BME280;3286;49.858;8.768;2024-01-30T03:04:18;100506.00;;;3.83;57.80
6506;BME280;3286;49.858;8.768;2024-01-30T03:06:45;100499.84;;;4.02;57.01
6506;BME280;3286;49.858;8.768;2024-01-30T03:09:13;100504.53;;;3.95;56.27
6506;BME280;3286;49.858;8.768;2024-01-30T03:11:39;100497.13;;;3.86;56.66
6506;BME280;3286;49.858;8.768;2024-01-30T03:14:08;100505.13;;;3.83;57.30
6506;BME280;3286;49.858;8.768;2024-01-30T03:16:36;100499.22;;;3.97;55.88
6506;BME280;3286;49.858;8.768;2024-01-30T03:19:03;100509.28;;;3.87;56.06
6506;BME280;3286;49.858;8.768;2024-01-30T03:21:30;100506.75;;;3.68;56.44
6506;BME280;3286;49.858;8.768;2024-01-30T03:23:57;100503.66;;;3.40;55.58
6506;BME280;3286;49.858;8.768;2024-01-30T03:26:24;100512.03;;;3.66;55.18
6506;BME280;3286;49.858;8.768;2024-01-30T03:28:51;100508.69;;;3.26;55.72
6506;BME280;3286;49.858;8.768;2024-01-30T03:31:19;100510.66;;;3.21;55.68
6506;BME280;3286;49.858;8.768;2024-01-30T03:33:45;100502.75;;;3.22;55.37
6506;BME280;3286;49.858;8.768;2024-01-30T03:36:12;100497.31;;;3.27;55.33
6506;BME280;3286;49.858;8.768;2024-01-30T03:38:39;100498.41;;;3.59;54.60
6506;BME280;3286;49.858;8.768;2024-01-30T03:41:07;100496.38;;;3.47;55.91
6506;BME280;3286;49.858;8.768;2024-01-30T03:43:34;100497.28;;;3.83;55.82
6506;BME280;3286;49.858;8.768;2024-01-30T03:46:02;100506.13;;;3.43;56.45
6506;BME280;3286;49.858;8.768;2024-01-30T03:48:30;100504.44;;;3.23;56.98
6506;BME280;3286;49.858;8.768;2024-01-30T03:50:56;100497.88;;;3.53;57.65
6506;BME280;3286;49.858;8.768;2024-01-30T03:53:23;100491.31;;;3.61;57.91
6506;BME280;3286;49.858;8.768;2024-01-30T03:55:51;100492.81;;;3.67;56.52
6506;BME280;3286;49.858;8.768;2024-01-30T03:58:17;100491.13;;;3.66;56.48
6506;BME280;3286;49.858;8.768;2024-01-30T04:00:44;100494.81;;;3.80;55.11
6506;BME280;3286;49.858;8.768;2024-01-30T04:03:11;100492.28;;;3.41;57.04
6506;BME280;3286;49.858;8.768;2024-01-30T04:05:39;100490.84;;;3.53;57.10
6506;BME280;3286;49.858;8.768;2024-01-30T04:08:06;100492.16;;;3.81;55.96
6506;BME280;3286;49.858;8.768;2024-01-30T04:10:33;100495.91;;;3.39;56.71
6506;BME280;3286;49.858;8.768;2024-01-30T04:12:59;100496.38;;;3.47;56.24
6506;BME280;3286;49.858;8.768;2024-01-30T04:15:27;100497.78;;;3.54;56.02
6506;BME280;3286;49.858;8.768;2024-01-30T04:17:57;100497.34;;;3.44;55.65
6506;BME280;3286;49.858;8.768;2024-01-30T04:20:24;100500.91;;;3.05;56.99
6506;BME280;3286;49.858;8.768;2024-01-30T04:22:52;100500.97;;;3.03;57.14
6506;BME280;3286;49.858;8.768;2024-01-30T04:25:19;100505.56;;;2.98;58.59
6506;BME280;3286;49.858;8.768;2024-01-30T04:27:46;100489.53;;;3.44;57.21
6506;BME280;3286;49.858;8.768;2024-01-30T04:30:13;100488.84;;;3.22;57.42
6506;BME280;3286;49.858;8.768;2024-01-30T04:32:40;100489.66;;;3.41;57.64
6506;BME280;3286;49.858;8.768;2024-01-30T04:35:07;100484.09;;;3.49;56.56
6506;BME280;3286;49.858;8.768;2024-01-30T04:37:33;100490.38;;;3.45;56.22
6506;BME280;3286;49.858;8.768;2024-01-30T04:40:01;100494.22;;;3.38;56.83
6506;BME280;3286;49.858;8.768;2024-01-30T04:42:28;100482.91;;;3.37;56.20
6506;BME280;3286;49.858;8.768;2024-01-30T04:44:55;100502.19;;;3.15;57.04
6506;BME280;3286;49.858;8.768;2024-01-30T04:47:21;100495.41;;;3.30;57.14
6506;BME280;3286;49.858;8.768;2024-01-30T04:49:48;100489.13;;;3.35;57.27
6506;BME280;3286;49.858;8.768;2024-01-30T04:52:15;100497.78;;;3.35;58.49
6506;BME280;3286;49.858;8.768;2024-01-30T04:54:42;100505.69;;;3.53;57.92
6506;BME280;3286;49.858;8.768;2024-01-30T04:57:10;100501.78;;;3.61;58.41
6506;BME280;3286;49.858;8.768;2024-01-30T04:59:37;100511.25;;;3.64;57.61
6506;BME280;3286;49.858;8.768;2024-01-30T05:02:04;100502.53;;;3.27;56.58
6506;BME280;3286;49.858;8.768;2024-01-30T05:04:31;100517.91;;;3.33;56.59
6506;BME280;3286;49.858;8.768;2024-01-30T05:06:58;100512.69;;;3.14;57.26
6506;BME280;3286;49.858;8.768;2024-01-30T05:09:24;100514.69;;;3.28;57.93
6506;BME280;3286;49.858;8.768;2024-01-30T05:11:51;100515.59;;;3.27;57.79
6506;BME280;3286;49.858;8.768;2024-01-30T05:14:19;100509.78;;;3.95;55.67
6506;BME280;3286;49.858;8.768;2024-01-30T05:16:45;100518.34;;;3.24;55.77
6506;BME280;3286;49.858;8.768;2024-01-30T05:19:13;100518.47;;;3.59;56.49
6506;BME280;3286;49.858;8.768;2024-01-30T05:21:41;100512.19;;;3.06;56.63
6506;BME280;3286;49.858;8.768;2024-01-30T05:24:07;100518.78;;;3.33;55.92
6506;BME280;3286;49.858;8.768;2024-01-30T05:26:35;100521.72;;;3.07;56.11
6506;BME280;3286;49.858;8.768;2024-01-30T05:29:02;100522.78;;;2.63;57.80
6506;BME280;3286;49.858;8.768;2024-01-30T05:31:30;100517.84;;;2.96;56.76
6506;BME280;3286;49.858;8.768;2024-01-30T05:33:57;100521.78;;;3.05;56.03
6506;BME280;3286;49.858;8.768;2024-01-30T05:36:23;100513.09;;;2.85;56.79
6506;BME280;3286;49.858;8.768;2024-01-30T05:38:50;100524.03;;;2.94;56.81
6506;BME280;3286;49.858;8.768;2024-01-30T05:41:17;100522.00;;;3.00;57.00
6506;BME280;3286;49.858;8.768;2024-01-30T05:43:44;100531.84;;;3.14;56.44
6506;BME280;3286;49.858;8.768;2024-01-30T05:46:10;100519.06;;;3.27;56.60
6506;BME280;3286;49.858;8.768;2024-01-30T05:48:38;100516.09;;;3.16;56.49
6506;BME280;3286;49.858;8.768;2024-01-30T05:51:07;100519.69;;;3.32;56.05
6506;BME280;3286;49.858;8.768;2024-01-30T05:53:33;100520.50;;;3.52;56.14
6506;BME280;3286;49.858;8.768;2024-01-30T05:56:01;100519.47;;;3.37;56.39
6506;BME280;3286;49.858;8.768;2024-01-30T05:58:28;100519.00;;;3.66;56.24
6506;BME280;3286;49.858;8.768;2024-01-30T06:00:54;100530.91;;;2.75;57.35
6506;BME280;3286;49.858;8.768;2024-01-30T06:03:21;100519.44;;;2.99;56.75
6506;BME280;3286;49.858;8.768;2024-01-30T06:05:49;100523.47;;;2.87;57.15
6506;BME280;3286;49.858;8.768;2024-01-30T06:08:16;100521.56;;;2.90;57.98
6506;BME280;3286;49.858;8.768;2024-01-30T06:10:42;100519.97;;;3.07;56.62
6506;BME280;3286;49.858;8.768;2024-01-30T06:13:09;100524.34;;;3.07;56.92
6506;BME280;3286;49.858;8.768;2024-01-30T06:15:36;100521.22;;;2.98;57.98
6506;BME280;3286;49.858;8.768;2024-01-30T06:18:02;100530.47;;;3.06;56.91
6506;BME280;3286;49.858;8.768;2024-01-30T06:20:29;100525.41;;;3.22;57.87
6506;BME280;3286;49.858;8.768;2024-01-30T06:22:57;100524.25;;;2.89;58.86
6506;BME280;3286;49.858;8.768;2024-01-30T06:25:24;100529.06;;;2.98;58.39
6506;BME280;3286;49.858;8.768;2024-01-30T06:27:50;100529.19;;;2.95;59.31
6506;BME280;3286;49.858;8.768;2024-01-30T06:30:17;100528.03;;;3.41;57.04
6506;BME280;3286;49.858;8.768;2024-01-30T06:32:44;100529.09;;;3.17;56.92
6506;BME280;3286;49.858;8.768;2024-01-30T06:35:11;100523.50;;;3.06;57.10
6506;BME280;3286;49.858;8.768;2024-01-30T06:37:37;100530.06;;;3.15;56.45
6506;BME280;3286;49.858;8.768;2024-01-30T06:40:07;100522.66;;;3.44;55.78
6506;BME280;3286;49.858;8.768;2024-01-30T06:42:34;100523.63;;;3.03;57.10
6506;BME280;3286;49.858;8.768;2024-01-30T06:45:00;100521.25;;;2.78;57.31
6506;BME280;3286;49.858;8.768;2024-01-30T06:47:27;100521.78;;;3.05;56.33
6506;BME280;3286;49.858;8.768;2024-01-30T06:49:54;100520.91;;;3.06;57.49
6506;BME280;3286;49.858;8.768;2024-01-30T06:52:20;100522.56;;;3.26;56.00
6506;BME280;3286;49.858;8.768;2024-01-30T06:54:47;100527.56;;;2.93;56.93
6506;BME280;3286;49.858;8.768;2024-01-30T06:57:15;100524.47;;;3.03;56.69
6506;BME280;3286;49.858;8.768;2024-01-30T06:59:42;100524.06;;;3.13;55.99
6506;BME280;3286;49.858;8.768;2024-01-30T07:02:09;100522.66;;;3.25;56.05
6506;BME280;3286;49.858;8.768;2024-01-30T07:04:36;100514.38;;;2.96;57.48
6506;BME280;3286;49.858;8.768;2024-01-30T07:07:04;100531.81;;;2.95;57.80
6506;BME280;3286;49.858;8.768;2024-01-30T07:09:31;100528.38;;;3.14;56.48
6506;BME280;3286;49.858;8.768;2024-01-30T07:11:59;100529.94;;;2.78;58.36
6506;BME280;3286;49.858;8.768;2024-01-30T07:14:27;100518.34;;;3.04;57.67
6506;BME280;3286;49.858;8.768;2024-01-30T07:16:54;100523.91;;;3.54;56.20
6506;BME280;3286;49.858;8.768;2024-01-30T07:19:20;100524.69;;;2.99;57.05
6506;BME280;3286;49.858;8.768;2024-01-30T07:21:47;100528.78;;;3.24;57.11
6506;BME280;3286;49.858;8.768;2024-01-30T07:24:14;100531.22;;;3.28;56.50
6506;BME280;3286;49.858;8.768;2024-01-30T07:26:40;100529.47;;;2.89;58.39
6506;BME280;3286;49.858;8.768;2024-01-30T07:29:07;100534.31;;;3.17;57.70
6506;BME280;3286;49.858;8.768;2024-01-30T07:31:35;100524.19;;;3.10;57.99
6506;BME280;3286;49.858;8.768;2024-01-30T07:34:02;100521.72;;;3.45;56.27
6506;BME280;3286;49.858;8.768;2024-01-30T07:36:29;100529.63;;;3.43;56.70
6506;BME280;3286;49.858;8.768;2024-01-30T07:38:55;100525.16;;;3.45;57.10
6506;BME280;3286;49.858;8.768;2024-01-30T07:41:22;100522.06;;;3.56;56.76
6506;BME280;3286;49.858;8.768;2024-01-30T07:43:50;100528.97;;;3.57;56.36
6506;BME280;3286;49.858;8.768;2024-01-30T07:46:17;100524.31;;;3.64;56.30
6506;BME280;3286;49.858;8.768;2024-01-30T07:48:45;100526.38;;;3.57;55.89
6506;BME280;3286;49.858;8.768;2024-01-30T07:51:12;100538.50;;;3.58;56.27
6506;BME280;3286;49.858;8.768;2024-01-30T07:53:38;100528.91;;;3.78;56.54
6506;BME280;3286;49.858;8.768;2024-01-30T07:56:05;100531.53;;;3.96;55.01
6506;BME280;3286;49.858;8.768;2024-01-30T07:58:32;100534.22;;;3.94;54.98
6506;BME280;3286;49.858;8.768;2024-01-30T08:00:59;100537.78;;;4.11;54.79
6506;BME280;3286;49.858;8.768;2024-01-30T08:03:26;100542.53;;;4.20;55.15
6506;BME280;3286;49.858;8.768;2024-01-30T08:05:54;100546.22;;;3.98;55.58
6506;BME280;3286;49.858;8.768;2024-01-30T08:08:20;100540.53;;;4.08;56.09
6506;BME280;3286;49.858;8.768;2024-01-30T08:10:47;100550.56;;;4.34;55.78
6506;BME280;3286;49.858;8.768;2024-01-30T08:13:15;100543.25;;;4.41;55.37
6506;BME280;3286;49.858;8.768;2024-01-30T08:15:41;100542.69;;;4.17;56.23
6506;BME280;3286;49.858;8.768;2024-01-30T08:18:08;100538.78;;;4.26;56.34
6506;BME280;3286;49.858;8.768;2024-01-30T08:20:35;100538.09;;;4.40;56.69
6506;BME280;3286;49.858;8.768;2024-01-30T08:23:03;100544.38;;;4.71;56.07
6506;BME280;3286;49.858;8.768;2024-01-30T08:25:29;100550.44;;;4.71;57.38
6506;BME280;3286;49.858;8.768;2024-01-30T08:27:56;100550.13;;;4.95;55.94
6506;BME280;3286;49.858;8.768;2024-01-30T08:30:23;100546.72;;;4.93;56.02
6506;BME280;3286;49.858;8.768;2024-01-30T08:32:50;100543.81;;;5.15;55.71
6506;BME280;3286;49.858;8.768;2024-01-30T08:35:17;100553.44;;;5.15;55.18
6506;BME280;3286;49.858;8.768;2024-01-30T08:37:43;100548.50;;;4.92;56.02
6506;BME280;3286;49.858;8.768;2024-01-30T08:40:11;100553.69;;;5.26;55.44
6506;BME280;3286;49.858;8.768;2024-01-30T08:42:38;100548.88;;;5.18;55.57
6506;BME280;3286;49.858;8.768;2024-01-30T08:45:05;100553.69;;;5.10;55.63
6506;BME280;3286;49.858;8.768;2024-01-30T08:47:32;100550.16;;;5.27;55.75
6506;BME280;3286;49.858;8.768;2024-01-30T08:49:59;100544.94;;;5.59;54.65
6506;BME280;3286;49.858;8.768;2024-01-30T08:52:26;100546.63;;;5.60;54.48
6506;BME280;3286;49.858;8.768;2024-01-30T08:54:52;100556.44;;;5.57;54.89
6506;BME280;3286;49.858;8.768;2024-01-30T08:57:21;100556.81;;;5.17;57.34
6506;BME280;3286;49.858;8.768;2024-01-30T08:59:47;100553.38;;;5.80;56.07
6506;BME280;3286;49.858;8.768;2024-01-30T09:02:14;100552.34;;;6.15;55.07
6506;BME280;3286;49.858;8.768;2024-01-30T09:04:41;100553.81;;;6.35;54.69
6506;BME280;3286;49.858;8.768;2024-01-30T09:07:09;100555.16;;;6.72;53.39
6506;BME280;3286;49.858;8.768;2024-01-30T09:09:37;100556.66;;;6.47;54.45
6506;BME280;3286;49.858;8.768;2024-01-30T09:12:05;100560.44;;;6.27;54.81
6506;BME280;3286;49.858;8.768;2024-01-30T09:14:36;100560.38;;;6.43;53.96
6506;BME280;3286;49.858;8.768;2024-01-30T09:17:03;100551.97;;;6.52;54.13
6506;BME280;3286;49.858;8.768;2024-01-30T09:19:30;100558.16;;;6.51;54.21
6506;BME280;3286;49.858;8.768;2024-01-30T09:21:57;100562.25;;;7.00;53.34
6506;BME280;3286;49.858;8.768;2024-01-30T09:24:24;100561.25;;;6.27;54.57
6506;BME280;3286;49.858;8.768;2024-01-30T09:26:50;100578.78;;;6.43;54.05
6506;BME280;3286;49.858;8.768;2024-01-30T09:29:17;100573.81;;;6.22;54.84
6506;BME280;3286;49.858;8.768;2024-01-30T09:31:45;100579.16;;;6.20;54.87
6506;BME280;3286;49.858;8.768;2024-01-30T09:34:12;100572.69;;;6.26;55.17
6506;BME280;3286;49.858;8.768;2024-01-30T09:36:39;100571.44;;;6.33;54.80
6506;BME280;3286;49.858;8.768;2024-01-30T09:39:05;100577.53;;;6.48;54.65
6506;BME280;3286;49.858;8.768;2024-01-30T09:41:33;100574.22;;;6.61;54.51
6506;BME280;3286;49.858;8.768;2024-01-30T09:44:05;100579.19;;;6.65;54.39
6506;BME280;3286;49.858;8.768;2024-01-30T09:46:33;100572.66;;;6.87;53.93
6506;BME280;3286;49.858;8.768;2024-01-30T09:49:02;100570.88;;;7.02;54.05
6506;BME280;3286;49.858;8.768;2024-01-30T09:51:30;100565.72;;;7.15;53.36
6506;BME280;3286;49.858;8.768;2024-01-30T09:53:57;100567.75;;;7.39;53.58
6506;BME280;3286;49.858;8.768;2024-01-30T09:56:24;100567.72;;;7.53;52.81
6506;BME280;3286;49.858;8.768;2024-01-30T09:58:50;100566.31;;;7.62;52.63
6506;BME280;3286;49.858;8.768;2024-01-30T10:01:17;100559.34;;;7.76;52.42
6506;BME280;3286;49.858;8.768;2024-01-30T10:03:45;100568.50;;;8.10;52.10
6506;BME280;3286;49.858;8.768;2024-01-30T10:06:13;100563.19;;;8.38;52.48
6506;BME280;3286;49.858;8.768;2024-01-30T10:08:42;100563.84;;;8.41;52.04
6506;BME280;3286;49.858;8.768;2024-01-30T10:11:09;100559.72;;;8.37;51.92
6506;BME280;3286;49.858;8.768;2024-01-30T10:13:35;100555.56;;;8.87;51.42
6506;BME280;3286;49.858;8.768;2024-01-30T10:16:02;100558.53;;;8.69;51.23
6506;BME280;3286;49.858;8.768;2024-01-30T10:18:31;100556.94;;;8.66;50.83
6506;BME280;3286;49.858;8.768;2024-01-30T10:20:58;100557.91;;;8.91;50.98
6506;BME280;3286;49.858;8.768;2024-01-30T10:23:26;100555.38;;;8.64;50.85
6506;BME280;3286;49.858;8.768;2024-01-30T10:25:53;100556.63;;;8.84;50.46
6506;BME280;3286;49.858;8.768;2024-01-30T10:28:20;100543.34;;;8.73;50.29
6506;BME280;3286;49.858;8.768;2024-01-30T10:30:57;100556.56;;;8.45;50.48
6506;BME280;3286;49.858;8.768;2024-01-30T10:33:24;100546.72;;;8.75;50.50
6506;BME280;3286;49.858;8.768;2024-01-30T10:35:50;100548.56;;;8.47;50.55
6506;BME280;3286;49.858;8.768;2024-01-30T10:38:19;100557.09;;;8.37;50.48
6506;BME280;3286;49.858;8.768;2024-01-30T10:40:48;100551.34;;;8.58;50.90
6506;BME280;3286;49.858;8.768;2024-01-30T10:43:21;100559.84;;;8.49;50.67
6506;BME280;3286;49.858;8.768;2024-01-30T10:45:49;100543.66;;;8.55;50.62
6506;BME280;3286;49.858;8.768;2024-01-30T10:48:18;100547.25;;;8.67;50.24
6506;BME280;3286;49.858;8.768;2024-01-30T10:50:50;100557.78;;;8.54;51.19
6506;BME280;3286;49.858;8.768;2024-01-30T10:53:18;100554.22;;;8.68;50.67
6506;BME280;3286;49.858;8.768;2024-01-30T10:55:47;100550.72;;;8.80;51.13
6506;BME280;3286;49.858;8.768;2024-01-30T10:58:15;100544.06;;;8.75;50.29
6506;BME280;3286;49.858;8.768;2024-01-30T11:00:42;100539.31;;;9.06;50.48
6506;BME280;3286;49.858;8.768;2024-01-30T11:03:09;100540.47;;;9.15;50.94
6506;BME280;3286;49.858;8.768;2024-01-30T11:05:36;100539.22;;;9.07;51.03
6506;BME280;3286;49.858;8.768;2024-01-30T11:08:11;100543.63;;;9.20;50.53
6506;BME280;3286;49.858;8.768;2024-01-30T11:10:44;100528.28;;;8.62;51.36
6506;BME280;3286;49.858;8.768;2024-01-30T11:13:13;100532.22;;;8.29;52.64
6506;BME280;3286;49.858;8.768;2024-01-30T11:15:40;100531.75;;;9.01;51.15
6506;BME280;3286;49.858;8.768;2024-01-30T11:18:07;100532.28;;;9.44;49.10
6506;BME280;3286;49.858;8.768;2024-01-30T11:20:33;100534.06;;;9.43;49.36
6506;BME280;3286;49.858;8.768;2024-01-30T11:23:01;100541.44;;;9.51;49.66
6506;BME280;3286;49.858;8.768;2024-01-30T11:25:31;100544.94;;;9.01;50.67
6506;BME280;3286;49.858;8.768;2024-01-30T11:27:58;100543.63;;;9.20;51.60
6506;BME280;3286;49.858;8.768;2024-01-30T11:30:28;100536.50;;;9.46;50.67
6506;BME280;3286;49.858;8.768;2024-01-30T11:32:59;100535.69;;;9.94;50.34
6506;BME280;3286;49.858;8.768;2024-01-30T11:35:25;100541.16;;;10.51;49.00
6506;BME280;3286;49.858;8.768;2024-01-30T11:37:52;100542.16;;;10.37;49.51
6506;BME280;3286;49.858;8.768;2024-01-30T11:40:21;100541.75;;;10.43;49.22
6506;BME280;3286;49.858;8.768;2024-01-30T11:42:48;100534.06;;;10.40;49.02
6506;BME280;3286;49.858;8.768;2024-01-30T11:45:15;100531.59;;;10.84;48.50
6506;BME280;3286;49.858;8.768;2024-01-30T11:47:45;100511.28;;;11.30;47.99
6506;BME280;3286;49.858;8.768;2024-01-30T11:50:11;100510.59;;;11.61;47.83
6506;BME280;3286;49.858;8.768;2024-01-30T11:52:39;100499.28;;;11.59;47.78
6506;BME280;3286;49.858;8.768;2024-01-30T11:55:07;100495.13;;;11.45;48.83
6506;BME280;3286;49.858;8.768;2024-01-30T11:57:34;100489.88;;;11.66;47.83
6506;BME280;3286;49.858;8.768;2024-01-30T12:00:02;100485.50;;;11.77;48.28
6506;BME280;3286;49.858;8.768;2024-01-30T12:02:33;100484.53;;;11.89;48.50
6506;BME280;3286;49.858;8.768;2024-01-30T12:05:04;100489.22;;;11.41;49.28
6506;BME280;3286;49.858;8.768;2024-01-30T12:07:31;100491.81;;;11.64;48.61
6506;BME280;3286;49.858;8.768;2024-01-30T12:09:58;100485.75;;;11.73;48.42
6506;BME280;3286;49.858;8.768;2024-01-30T12:12:25;100482.81;;;11.67;48.08
6506;BME280;3286;49.858;8.768;2024-01-30T12:14:53;100485.22;;;11.58;48.55
6506;BME280;3286;49.858;8.768;2024-01-30T12:17:24;100470.41;;;11.88;48.36
6506;BME280;3286;49.858;8.768;2024-01-30T12:19:51;100473.97;;;12.10;47.86
6506;BME280;3286;49.858;8.768;2024-01-30T12:22:21;100478.25;;;11.90;47.41
6506;BME280;3286;49.858;8.768;2024-01-30T12:24:47;100474.78;;;12.32;46.96
6506;BME280;3286;49.858;8.768;2024-01-30T12:27:15;100478.06;;;12.03;47.73
6506;BME280;3286;49.858;8.768;2024-01-30T12:29:42;100477.78;;;11.85;48.49
6506;BME280;3286;49.858;8.768;2024-01-30T12:32:15;100471.22;;;12.43;46.83
6506;BME280;3286;49.858;8.768;2024-01-30T12:34:42;100476.16;;;12.26;46.81
6506;BME280;3286;49.858;8.768;2024-01-30T12:37:08;100470.97;;;12.46;46.29
6506;BME280;3286;49.858;8.768;2024-01-30T12:39:38;100472.75;;;12.67;46.16
6506;BME280;3286;49.858;8.768;2024-01-30T12:42:05;100471.31;;;12.63;46.42
6506;BME280;3286;49.858;8.768;2024-01-30T12:44:31;100473.38;;;12.80;45.45
6506;BME280;3286;49.858;8.768;2024-01-30T12:46:58;100466.22;;;12.81;46.13
6506;BME280;3286;49.858;8.768;2024-01-30T12:49:24;100472.19;;;11.99;48.70
6506;BME280;3286;49.858;8.768;2024-01-30T12:51:51;100471.72;;;12.58;46.45
6506;BME280;3286;49.858;8.768;2024-01-30T12:54:19;100465.56;;;12.57;47.53
6506;BME280;3286;49.858;8.768;2024-01-30T12:56:50;100467.59;;;13.06;46.16
6506;BME280;3286;49.858;8.768;2024-01-30T12:59:17;100469.78;;;12.91;47.13
6506;BME280;3286;49.858;8.768;2024-01-30T13:01:44;100479.00;;;12.97;46.88
6506;BME280;3286;49.858;8.768;2024-01-30T13:04:10;100466.31;;;13.00;46.85
6506;BME280;3286;49.858;8.768;2024-01-30T13:06:37;100466.88;;;13.04;46.35
6506;BME280;3286;49.858;8.768;2024-01-30T13:09:04;100461.28;;;13.48;45.72
6506;BME280;3286;49.858;8.768;2024-01-30T13:11:31;100460.25;;;13.39;45.91
6506;BME280;3286;49.858;8.768;2024-01-30T13:13:59;100461.00;;;13.61;45.06
6506;BME280;3286;49.858;8.768;2024-01-30T13:16:26;100453.19;;;13.50;45.78
6506;BME280;3286;49.858;8.768;2024-01-30T13:18:53;100451.56;;;13.37;45.21